If you wish to contribute or participate in the discussions about articles you are invited to join SKYbrary as a registered user

 Actions

Angoulême-Brie-Champniers Airport

From SKYbrary Wiki

LFBU
Airport
ICAO: LFBU – IATA: ANG
Summary
Name Angoulême-Brie-Champniers Airport
Region Europe
Territory France FR.gif
Location , Poitou-Charentes
Serving Angouleme
Elevation 132.893 m
436 ft
436 ft132.893 m
Type medium airport
Coordinates 45° 43' 45.2892", 0° 13' 17.2416"
Runways
Designator Length Width Surface ROPS
10/28 1810 m5,938.32 ft 45 m147.638 ft ASP /
METAR
Observation LFBU 122130Z AUTO 17005KT 130V190 CAVOK 04/03 Q1019
Station BRIE CHAMPNIERS
Date/Time 12 December 2017 21:30:00
Wind direction 170°
Wind speed 05 kts
Lowest cloud amount clouds and visibility OK
Temperature 4°C
Dew point 3°C
Humidity 93%
QNH 1019 hPa
Weather condition n/a